createdAt,value
2023-06-23T00:00:29.522Z,5.72
2023-06-23T00:02:56.203Z,6.70
2023-06-23T00:05:22.605Z,7.00
2023-06-23T00:07:49.022Z,9.00
2023-06-23T00:10:15.642Z,7.38
2023-06-23T00:12:44.865Z,7.43
2023-06-23T00:15:13.589Z,6.93
2023-06-23T00:17:44.505Z,10.45
2023-06-23T00:20:13.554Z,7.72
2023-06-23T00:22:45.072Z,9.60
2023-06-23T00:25:13.321Z,13.60
2023-06-23T00:27:41.405Z,9.82
2023-06-23T00:30:09.005Z,10.02
2023-06-23T00:32:35.994Z,11.23
2023-06-23T00:35:02.808Z,9.60
2023-06-23T00:37:32.231Z,9.38
2023-06-23T00:39:59.316Z,10.35
2023-06-23T00:42:26.156Z,12.15
2023-06-23T00:44:52.526Z,8.00
2023-06-23T00:47:19.083Z,10.05
2023-06-23T00:49:46.290Z,11.93
2023-06-23T00:52:12.886Z,10.00
2023-06-23T00:54:39.415Z,12.75
2023-06-23T00:57:06.606Z,9.93
2023-06-23T00:59:33.002Z,11.00
2023-06-23T01:02:01.111Z,11.52
2023-06-23T01:04:35.791Z,11.70
2023-06-23T01:07:02.266Z,11.88
2023-06-23T01:09:54.035Z,12.07
2023-06-23T01:12:34.371Z,8.40
2023-06-23T01:15:08.713Z,9.82
2023-06-23T01:17:44.868Z,10.30
2023-06-23T01:20:25.586Z,10.23
2023-06-23T01:22:55.122Z,10.27
2023-06-23T01:25:30.851Z,13.27
2023-06-23T01:28:27.375Z,9.63
2023-06-23T01:30:55.921Z,9.95
2023-06-23T01:33:28.483Z,10.43
2023-06-23T01:36:04.582Z,9.57
2023-06-23T01:38:37.578Z,9.73
2023-06-23T01:41:09.985Z,14.52
2023-06-23T01:43:39.223Z,10.32
2023-06-23T01:46:09.529Z,10.75
2023-06-23T01:48:40.388Z,9.17
2023-06-23T01:51:08.528Z,11.25
2023-06-23T01:53:35.029Z,12.43
2023-06-23T01:56:04.035Z,10.30
2023-06-23T01:58:33.109Z,9.07
2023-06-23T02:01:01.301Z,12.57
2023-06-23T02:03:29.292Z,13.55
2023-06-23T02:05:57.015Z,11.85
2023-06-23T02:08:27.022Z,14.68
2023-06-23T02:10:55.678Z,10.77
2023-06-23T02:13:25.979Z,10.77
2023-06-23T02:15:54.558Z,11.67
2023-06-23T02:18:21.449Z,12.80
2023-06-23T02:20:50.664Z,10.18
2023-06-23T02:23:17.813Z,9.88
2023-06-23T02:25:44.633Z,13.48
2023-06-23T02:28:13.016Z,11.82
2023-06-23T02:30:40.876Z,12.80
2023-06-23T02:33:07.408Z,14.65
2023-06-23T02:35:34.996Z,10.93
2023-06-23T02:38:05.526Z,13.35
2023-06-23T02:40:35.454Z,11.83
2023-06-23T02:43:27.547Z,12.38
2023-06-23T02:45:56.680Z,14.55
2023-06-23T02:48:27.179Z,13.27
2023-06-23T02:50:55.732Z,13.70
2023-06-23T02:53:26.574Z,15.70
2023-06-23T02:56:17.998Z,13.40
2023-06-23T02:58:48.107Z,11.70
2023-06-23T03:01:16.334Z,15.07
2023-06-23T03:03:43.349Z,12.85
2023-06-23T03:06:24.402Z,17.23
2023-06-23T03:08:51.972Z,17.13
2023-06-23T03:11:22.376Z,16.70
2023-06-23T03:13:49.734Z,15.03
2023-06-23T03:16:37.001Z,17.63
2023-06-23T03:19:29.733Z,14.68
2023-06-23T03:22:09.412Z,16.52
2023-06-23T03:24:40.601Z,15.85
2023-06-23T03:29:45.284Z,16.08
2023-06-23T03:32:15.418Z,14.60
2023-06-23T03:34:55.441Z,18.75
2023-06-23T03:37:24.635Z,18.63
2023-06-23T03:39:57.208Z,15.13
2023-06-23T03:42:24.507Z,21.10
2023-06-23T03:44:54.072Z,19.90
2023-06-23T03:47:24.470Z,14.80
2023-06-23T03:49:53.926Z,17.30
2023-06-23T03:52:22.447Z,20.80
2023-06-23T03:54:52.545Z,17.48
2023-06-23T03:57:23.030Z,16.38
2023-06-23T03:59:51.533Z,16.73
2023-06-23T04:02:21.450Z,17.63
2023-06-23T04:04:50.341Z,17.67
2023-06-23T04:07:19.720Z,19.20
2023-06-23T04:09:48.679Z,22.80
2023-06-23T04:12:16.940Z,16.35
2023-06-23T04:14:47.272Z,24.08
2023-06-23T04:17:15.038Z,22.77
2023-06-23T04:19:45.586Z,18.13
2023-06-23T04:22:15.307Z,21.45
2023-06-23T04:24:42.662Z,20.77
2023-06-23T04:27:13.148Z,22.63
2023-06-23T04:29:45.499Z,19.95
2023-06-23T04:32:13.775Z,20.58
2023-06-23T04:34:40.518Z,24.30
2023-06-23T04:37:13.443Z,25.35
2023-06-23T04:39:54.088Z,23.15
2023-06-23T04:42:27.612Z,20.15
2023-06-23T04:44:59.467Z,26.05
2023-06-23T04:47:30.088Z,22.27
2023-06-23T04:50:01.858Z,25.40
2023-06-23T04:52:30.186Z,21.55
2023-06-23T04:55:00.463Z,24.33
2023-06-23T04:57:30.530Z,26.17
2023-06-23T05:00:00.895Z,24.25
2023-06-23T05:02:29.235Z,27.27
2023-06-23T05:04:57.669Z,26.33
2023-06-23T05:07:25.245Z,24.85
2023-06-23T05:09:53.663Z,33.67
2023-06-23T05:12:23.055Z,26.70
2023-06-23T05:14:50.957Z,29.25
2023-06-23T05:17:19.239Z,33.10
2023-06-23T05:19:47.753Z,35.15
2023-06-23T05:22:23.714Z,34.75
2023-06-23T05:24:55.288Z,30.33
2023-06-23T05:27:25.525Z,31.15
2023-06-23T05:29:56.261Z,34.45
2023-06-23T05:32:24.496Z,36.80
2023-06-23T05:34:52.770Z,36.92
2023-06-23T05:37:20.977Z,40.30
2023-06-23T05:39:48.930Z,37.83
2023-06-23T05:42:15.581Z,38.97
2023-06-23T05:44:42.124Z,37.53
2023-06-23T05:47:13.924Z,33.10
2023-06-23T05:49:45.050Z,33.25
2023-06-23T05:52:18.478Z,36.13
2023-06-23T05:54:47.998Z,35.40
2023-06-23T05:57:29.570Z,31.75
2023-06-23T06:00:10.984Z,30.30
2023-06-23T06:02:41.078Z,32.25
2023-06-23T06:05:12.593Z,24.40
2023-06-23T06:07:40.236Z,24.35
2023-06-23T06:10:09.615Z,23.58
2023-06-23T06:12:38.518Z,20.85
2023-06-23T06:15:07.235Z,21.80
2023-06-23T06:17:35.235Z,17.80
2023-06-23T06:20:05.455Z,19.40
2023-06-23T06:22:35.126Z,21.02
2023-06-23T06:25:04.307Z,25.35
2023-06-23T06:27:33.808Z,28.13
2023-06-23T06:30:01.219Z,23.98
2023-06-23T06:32:30.610Z,26.45
2023-06-23T06:35:05.863Z,23.75
2023-06-23T06:37:42.905Z,24.10
2023-06-23T06:40:12.530Z,14.73
2023-06-23T06:42:39.215Z,18.77
2023-06-23T06:45:06.236Z,17.30
2023-06-23T06:47:35.992Z,21.20
2023-06-23T06:50:03.357Z,22.00
2023-06-23T06:52:44.403Z,23.73
2023-06-23T06:55:21.808Z,20.95
2023-06-23T06:57:49.165Z,21.50
2023-06-23T07:00:20.257Z,16.35
2023-06-23T07:05:14.621Z,7.20
2023-06-23T07:07:41.031Z,21.02
2023-06-23T07:10:07.848Z,22.63
2023-06-23T07:12:34.723Z,19.33
2023-06-23T07:15:01.634Z,16.70
2023-06-23T07:17:28.095Z,18.85
2023-06-23T07:19:54.618Z,18.80
2023-06-23T07:22:21.127Z,18.90
2023-06-23T07:24:47.529Z,15.13
2023-06-23T07:27:16.921Z,19.83
2023-06-23T07:29:44.080Z,18.70
2023-06-23T07:32:11.112Z,18.92
2023-06-23T07:34:37.575Z,19.23
2023-06-23T07:37:04.124Z,17.85
2023-06-23T07:39:31.208Z,19.38
2023-06-23T07:41:57.566Z,15.85
2023-06-23T07:44:24.007Z,16.73
2023-06-23T07:46:50.572Z,15.15
2023-06-23T07:49:17.039Z,14.77
2023-06-23T07:51:43.402Z,18.70
2023-06-23T07:54:09.806Z,17.42
2023-06-23T07:56:36.378Z,15.90
2023-06-23T07:59:02.805Z,15.40
2023-06-23T08:01:29.138Z,15.75
2023-06-23T08:03:55.616Z,14.18
2023-06-23T08:06:24.845Z,15.02
2023-06-23T08:08:51.909Z,14.60
2023-06-23T08:11:18.565Z,13.05
2023-06-23T08:13:45.393Z,14.55
2023-06-23T08:16:12.075Z,11.68
2023-06-23T08:18:38.509Z,9.45
2023-06-23T08:21:05.002Z,8.23
2023-06-23T08:23:35.424Z,9.27
2023-06-23T08:26:03.645Z,9.52
2023-06-23T08:28:30.054Z,9.95
2023-06-23T08:30:58.812Z,8.25
2023-06-23T08:33:25.248Z,7.82
2023-06-23T08:35:51.673Z,8.23
2023-06-23T08:38:19.052Z,7.65
2023-06-23T08:40:48.192Z,7.80
2023-06-23T08:43:16.124Z,6.13
2023-06-23T08:45:45.509Z,9.38
2023-06-23T08:48:12.566Z,7.32
2023-06-23T08:50:38.974Z,8.43
2023-06-23T08:53:06.236Z,7.18
2023-06-23T08:55:35.951Z,9.98
2023-06-23T08:58:03.470Z,8.13
2023-06-23T09:00:30.425Z,8.32
2023-06-23T09:02:57.523Z,11.57
2023-06-23T09:05:24.256Z,7.47
2023-06-23T09:07:50.922Z,9.90
2023-06-23T09:10:18.950Z,10.18
2023-06-23T09:13:14.336Z,10.60
2023-06-23T09:15:59.414Z,9.15
2023-06-23T09:18:28.199Z,8.63
2023-06-23T09:20:54.607Z,8.77
2023-06-23T09:23:23.436Z,7.10
2023-06-23T09:25:59.846Z,9.60
2023-06-23T09:28:28.806Z,9.50
2023-06-23T09:30:57.716Z,10.52
2023-06-23T09:33:25.806Z,11.55
2023-06-23T09:35:56.784Z,8.75
2023-06-23T09:41:17.546Z,8.05
2023-06-23T09:43:54.562Z,8.93
2023-06-23T09:46:23.581Z,10.00
2023-06-23T09:48:51.328Z,8.20
2023-06-23T09:51:21.766Z,8.10
2023-06-23T09:53:49.333Z,7.60
2023-06-23T09:56:20.355Z,6.85
2023-06-23T10:01:17.694Z,8.07
2023-06-23T10:03:49.392Z,8.35
2023-06-23T10:06:33.132Z,6.20
2023-06-23T10:09:01.402Z,6.35
2023-06-23T10:11:36.048Z,6.55
2023-06-23T10:14:09.435Z,4.88
2023-06-23T10:16:37.218Z,7.45
2023-06-23T10:19:04.979Z,5.05
2023-06-23T10:21:31.612Z,4.95
2023-06-23T10:24:02.308Z,6.05
2023-06-23T10:26:32.559Z,5.45
2023-06-23T10:29:01.169Z,6.00
2023-06-23T10:31:30.829Z,5.05
2023-06-23T10:34:00.215Z,6.18
2023-06-23T10:36:29.369Z,6.45
2023-06-23T10:38:59.270Z,7.15
2023-06-23T10:41:27.399Z,5.40
2023-06-23T10:43:56.792Z,5.88
2023-06-23T10:46:27.412Z,6.20
2023-06-23T10:48:54.276Z,4.30
2023-06-23T10:51:21.492Z,6.05
2023-06-23T10:53:59.363Z,6.40
2023-06-23T10:56:35.775Z,4.90
2023-06-23T10:59:19.205Z,5.90
2023-06-23T11:02:00.810Z,7.63
2023-06-23T11:04:32.589Z,5.10
2023-06-23T11:07:08.585Z,5.40
2023-06-23T11:10:03.384Z,4.93
2023-06-23T11:12:44.927Z,3.75
2023-06-23T11:15:21.503Z,6.40
2023-06-23T11:17:50.416Z,4.03
2023-06-23T11:20:25.802Z,4.40
2023-06-23T11:23:09.323Z,6.35
2023-06-23T11:25:39.093Z,5.68
2023-06-23T11:28:29.874Z,5.88
2023-06-23T11:31:19.215Z,4.20
2023-06-23T11:33:59.743Z,5.43
2023-06-23T11:36:27.971Z,3.30
2023-06-23T11:38:56.846Z,3.85
2023-06-23T11:41:29.550Z,5.82
2023-06-23T11:44:02.215Z,4.88
2023-06-23T11:46:32.277Z,4.90
2023-06-23T11:48:58.759Z,4.55
2023-06-23T11:51:25.408Z,4.95
2023-06-23T11:53:55.168Z,3.90
2023-06-23T11:56:21.583Z,3.53
2023-06-23T11:58:53.000Z,3.63
2023-06-23T12:01:20.133Z,4.95
2023-06-23T12:03:51.164Z,5.40
2023-06-23T12:06:18.970Z,3.75
2023-06-23T12:08:46.438Z,4.28
2023-06-23T12:11:13.877Z,4.72
2023-06-23T12:13:40.365Z,4.53
2023-06-23T12:16:07.099Z,3.95
2023-06-23T12:18:33.526Z,6.32
2023-06-23T12:21:02.904Z,4.70
2023-06-23T12:23:32.436Z,3.38
2023-06-23T12:25:59.231Z,2.15
2023-06-23T12:28:30.333Z,3.85
2023-06-23T12:30:56.881Z,4.10
2023-06-23T12:33:24.973Z,2.80
2023-06-23T12:36:15.266Z,2.72
2023-06-23T12:38:41.959Z,3.03
2023-06-23T12:41:20.480Z,2.22
2023-06-23T12:43:48.712Z,3.20
2023-06-23T12:46:16.674Z,4.10
2023-06-23T12:48:44.446Z,2.92
2023-06-23T12:51:11.875Z,3.05
2023-06-23T12:53:38.317Z,2.75
2023-06-23T12:56:04.751Z,3.28
2023-06-23T12:58:31.129Z,3.20
2023-06-23T13:00:57.664Z,2.92
2023-06-23T13:03:24.171Z,2.53
2023-06-23T13:05:50.851Z,4.07
2023-06-23T13:08:17.480Z,2.78
2023-06-23T13:10:44.548Z,3.50
2023-06-23T13:13:12.151Z,4.03
2023-06-23T13:15:38.542Z,1.98
2023-06-23T13:18:05.635Z,3.70
2023-06-23T13:20:33.436Z,3.85
2023-06-23T13:22:59.986Z,3.30
2023-06-23T13:25:26.430Z,2.72
2023-06-23T13:27:53.005Z,2.67
2023-06-23T13:30:19.510Z,3.38
2023-06-23T13:32:45.885Z,2.97
2023-06-23T13:35:12.244Z,3.80
2023-06-23T13:37:39.381Z,3.58
2023-06-23T13:40:07.352Z,3.33
2023-06-23T13:42:33.843Z,2.80
2023-06-23T13:45:00.322Z,2.63
2023-06-23T13:47:27.002Z,7.20
2023-06-23T13:49:53.519Z,3.72
2023-06-23T13:52:19.881Z,2.70
2023-06-23T13:54:46.268Z,3.17
2023-06-23T13:57:12.674Z,3.38
2023-06-23T13:59:39.112Z,5.97
2023-06-23T14:02:05.870Z,4.15
2023-06-23T14:04:32.255Z,2.80
2023-06-23T14:06:58.719Z,2.67
2023-06-23T14:09:25.116Z,4.43
2023-06-23T14:11:51.516Z,2.45
2023-06-23T14:14:17.962Z,4.10
2023-06-23T14:16:44.898Z,3.55
2023-06-23T14:19:11.357Z,3.40
2023-06-23T14:21:37.745Z,4.47
2023-06-23T14:24:04.246Z,1.88
2023-06-23T14:26:30.676Z,2.58
2023-06-23T14:28:57.097Z,4.00
2023-06-23T14:31:23.700Z,2.72
2023-06-23T14:33:50.125Z,2.55
2023-06-23T14:36:16.556Z,2.78
2023-06-23T14:38:44.816Z,3.72
2023-06-23T14:41:11.373Z,3.38
2023-06-23T14:43:37.739Z,2.72
2023-06-23T14:46:04.386Z,2.55
2023-06-23T14:48:30.964Z,3.22
2023-06-23T14:51:09.369Z,3.33
2023-06-23T14:53:38.866Z,3.65
2023-06-23T14:56:05.379Z,3.08
2023-06-23T14:58:31.954Z,5.15
2023-06-23T15:00:59.023Z,2.85
2023-06-23T15:03:25.903Z,4.32
2023-06-23T15:05:52.673Z,2.67
2023-06-23T15:08:19.055Z,2.45
2023-06-23T15:10:46.122Z,3.75
2023-06-23T15:13:12.460Z,2.42
2023-06-23T15:15:40.089Z,2.92
2023-06-23T15:18:06.816Z,1.95
2023-06-23T15:20:35.174Z,2.08
2023-06-23T15:23:02.371Z,2.42
2023-06-23T15:25:28.811Z,3.20
2023-06-23T15:27:55.635Z,3.22
2023-06-23T15:30:22.002Z,3.90
2023-06-23T15:32:48.462Z,4.47
2023-06-23T15:35:17.716Z,3.35
2023-06-23T15:37:44.142Z,4.28
2023-06-23T15:40:12.592Z,4.07
2023-06-23T15:42:39.892Z,2.55
2023-06-23T15:45:09.822Z,3.33
2023-06-23T15:47:36.422Z,2.17
2023-06-23T15:50:03.170Z,2.40
2023-06-23T15:52:29.686Z,2.17
2023-06-23T15:54:56.216Z,5.25
2023-06-23T15:57:24.222Z,2.95
2023-06-23T15:59:52.157Z,4.80
2023-06-23T16:02:19.788Z,3.10
2023-06-23T16:04:46.557Z,3.00
2023-06-23T16:07:12.965Z,3.53
2023-06-23T16:09:39.364Z,2.97
2023-06-23T16:12:06.411Z,2.78
2023-06-23T16:14:32.815Z,3.08
2023-06-23T16:16:59.480Z,2.92
2023-06-23T16:19:26.441Z,6.80
2023-06-23T16:21:52.981Z,2.17
2023-06-23T16:24:19.359Z,5.38
2023-06-23T16:26:45.764Z,4.05
2023-06-23T16:29:12.147Z,4.15
2023-06-23T16:31:38.756Z,4.97
2023-06-23T16:34:05.253Z,3.25
2023-06-23T16:36:31.594Z,2.40
2023-06-23T16:38:57.958Z,4.95
2023-06-23T16:41:24.509Z,6.15
2023-06-23T16:43:50.945Z,4.40
2023-06-23T16:46:17.441Z,5.13
2023-06-23T16:48:43.855Z,2.58
2023-06-23T16:51:10.272Z,6.03
2023-06-23T16:53:36.718Z,6.55
2023-06-23T16:56:06.404Z,3.67
2023-06-23T16:58:33.714Z,4.17
2023-06-23T17:01:00.659Z,5.30
2023-06-23T17:03:27.821Z,6.13
2023-06-23T17:05:54.316Z,6.20
2023-06-23T17:08:20.688Z,5.28
2023-06-23T17:10:47.097Z,3.25
2023-06-23T17:13:13.582Z,3.92
2023-06-23T17:15:39.989Z,6.15
2023-06-23T17:18:06.341Z,4.78
2023-06-23T17:20:32.917Z,5.28
2023-06-23T17:22:59.393Z,5.20
2023-06-23T17:25:26.432Z,5.20
2023-06-23T17:27:52.918Z,4.47
2023-06-23T17:30:19.467Z,5.05
2023-06-23T17:32:45.930Z,4.28
2023-06-23T17:35:12.355Z,5.53
2023-06-23T17:37:38.938Z,4.97
2023-06-23T17:40:06.150Z,5.68
2023-06-23T17:42:32.517Z,3.88
2023-06-23T17:44:58.908Z,5.68
2023-06-23T17:47:26.561Z,6.88
2023-06-23T17:49:53.150Z,5.88
2023-06-23T17:52:19.785Z,4.55
2023-06-23T17:54:46.167Z,4.30
2023-06-23T17:57:14.308Z,4.78
2023-06-23T17:59:40.679Z,4.20
2023-06-23T18:02:07.826Z,4.55
2023-06-23T18:04:34.561Z,6.35
2023-06-23T18:07:01.021Z,4.57
2023-06-23T18:09:27.376Z,4.40
2023-06-23T18:11:53.763Z,5.22
2023-06-23T18:14:20.111Z,3.45
2023-06-23T18:16:46.613Z,5.03
2023-06-23T18:19:13.730Z,6.63
2023-06-23T18:21:40.205Z,4.50
2023-06-23T18:24:07.211Z,3.13
2023-06-23T18:26:33.608Z,3.17
2023-06-23T18:28:59.968Z,7.50
2023-06-23T18:31:26.419Z,3.85
2023-06-23T18:33:53.002Z,4.32
2023-06-23T18:36:19.379Z,3.05
2023-06-23T18:38:45.795Z,4.10
2023-06-23T18:41:12.180Z,7.00
2023-06-23T18:43:38.616Z,5.10
2023-06-23T18:46:04.982Z,2.67
2023-06-23T18:48:34.372Z,6.43
2023-06-23T18:51:01.524Z,5.13
2023-06-23T18:53:32.356Z,3.17
2023-06-23T18:56:00.415Z,24.23
2023-06-23T18:58:27.077Z,21.75
2023-06-23T19:00:54.405Z,5.30
2023-06-23T19:03:20.869Z,6.03
2023-06-23T19:05:47.506Z,3.45
2023-06-23T19:08:13.949Z,3.83
2023-06-23T19:10:40.333Z,5.15
2023-06-23T19:13:07.577Z,5.20
2023-06-23T19:15:34.196Z,5.15
2023-06-23T19:18:00.597Z,3.90
2023-06-23T19:20:27.037Z,4.72
2023-06-23T19:22:53.718Z,4.10
2023-06-23T19:25:20.107Z,4.85
2023-06-23T19:27:46.541Z,4.68
2023-06-23T19:30:13.570Z,4.45
2023-06-23T19:32:39.962Z,4.07
2023-06-23T19:35:06.576Z,2.65
2023-06-23T19:37:32.952Z,5.43
2023-06-23T19:40:01.448Z,3.10
2023-06-23T19:42:28.246Z,5.18
2023-06-23T19:44:55.130Z,3.33
2023-06-23T19:47:22.494Z,5.03
2023-06-23T19:49:49.066Z,5.05
2023-06-23T19:52:15.600Z,3.78
2023-06-23T19:54:41.958Z,5.45
2023-06-23T19:57:08.376Z,6.07
2023-06-23T19:59:34.758Z,6.90
2023-06-23T20:02:01.220Z,4.47
2023-06-23T20:04:27.657Z,4.80
2023-06-23T20:06:54.139Z,3.22
2023-06-23T20:09:20.527Z,4.68
2023-06-23T20:11:46.914Z,5.43
2023-06-23T20:14:13.288Z,4.10
2023-06-23T20:16:40.081Z,4.07
2023-06-23T20:19:07.270Z,5.57
2023-06-23T20:21:35.063Z,6.47
2023-06-23T20:24:02.112Z,5.53
2023-06-23T20:26:28.684Z,5.07
2023-06-23T20:28:55.147Z,4.32
2023-06-23T20:31:22.422Z,4.43
2023-06-23T20:33:48.890Z,4.63
2023-06-23T20:36:15.239Z,5.43
2023-06-23T20:38:42.211Z,5.03
2023-06-23T20:41:08.603Z,4.85
2023-06-23T20:43:35.036Z,5.13
2023-06-23T20:46:01.872Z,5.32
2023-06-23T20:48:28.300Z,4.88
2023-06-23T20:50:55.290Z,5.93
2023-06-23T20:53:21.650Z,4.80
2023-06-23T20:55:48.108Z,5.18
2023-06-23T20:58:14.538Z,6.38
2023-06-23T21:00:40.978Z,5.57
2023-06-23T21:03:07.529Z,4.47
2023-06-23T21:05:34.027Z,3.83
2023-06-23T21:08:00.517Z,5.43
2023-06-23T21:10:39.640Z,5.20
2023-06-23T21:13:06.187Z,4.10
2023-06-23T21:15:32.841Z,5.20
2023-06-23T21:17:59.647Z,6.15
2023-06-23T21:20:26.673Z,5.03
2023-06-23T21:22:54.197Z,5.57
2023-06-23T21:25:20.947Z,6.88
2023-06-23T21:27:48.688Z,5.50
2023-06-23T21:30:15.892Z,6.35
2023-06-23T21:32:42.881Z,8.18
2023-06-23T21:35:10.120Z,5.65
2023-06-23T21:37:36.469Z,7.35
2023-06-23T21:40:03.155Z,6.80
2023-06-23T21:42:29.960Z,6.50
2023-06-23T21:44:56.336Z,5.28
2023-06-23T21:47:22.845Z,5.05
2023-06-23T21:49:49.343Z,4.80
2023-06-23T21:52:15.798Z,3.85
2023-06-23T21:54:42.171Z,4.32
2023-06-23T21:57:08.627Z,5.60
2023-06-23T21:59:35.039Z,5.65
2023-06-23T22:02:02.122Z,4.53
2023-06-23T22:04:28.550Z,5.18
2023-06-23T22:06:55.021Z,5.18
2023-06-23T22:09:21.464Z,6.05
2023-06-23T22:11:48.027Z,5.72
2023-06-23T22:14:17.711Z,5.57
2023-06-23T22:16:45.474Z,6.22
2023-06-23T22:19:11.881Z,4.00
2023-06-23T22:21:39.499Z,6.53
2023-06-23T22:24:06.117Z,4.95
2023-06-23T22:26:32.529Z,4.60
2023-06-23T22:28:58.927Z,6.53
2023-06-23T22:31:25.317Z,4.10
2023-06-23T22:33:51.860Z,4.68
2023-06-23T22:36:18.299Z,3.95
2023-06-23T22:38:45.235Z,3.67
2023-06-23T22:41:12.062Z,5.70
2023-06-23T22:43:38.674Z,6.95
2023-06-23T22:46:05.125Z,5.68
2023-06-23T22:48:31.920Z,6.30
2023-06-23T22:50:58.345Z,6.35
2023-06-23T22:53:25.111Z,7.22
2023-06-23T22:55:51.545Z,7.43
2023-06-23T22:58:18.005Z,5.70
2023-06-23T23:00:44.394Z,5.32
2023-06-23T23:03:10.942Z,9.02
2023-06-23T23:05:37.387Z,6.55
2023-06-23T23:08:04.060Z,7.65
2023-06-23T23:10:30.723Z,7.25
2023-06-23T23:12:58.170Z,7.45
2023-06-23T23:15:24.724Z,5.95
2023-06-23T23:17:51.156Z,6.82
2023-06-23T23:20:17.942Z,7.80
2023-06-23T23:22:44.682Z,6.57
2023-06-23T23:25:12.182Z,8.15
2023-06-23T23:27:39.081Z,6.97
2023-06-23T23:30:07.796Z,6.25
2023-06-23T23:32:38.387Z,7.40
2023-06-23T23:35:12.574Z,8.70
2023-06-23T23:37:41.865Z,7.05
2023-06-23T23:40:12.416Z,6.97
2023-06-23T23:42:43.133Z,6.47
2023-06-23T23:45:10.571Z,6.57
2023-06-23T23:47:37.104Z,8.50
2023-06-23T23:50:03.913Z,6.20
2023-06-23T23:52:30.376Z,7.97
2023-06-23T23:54:57.170Z,6.72
2023-06-23T23:57:23.852Z,8.45
2023-06-23T23:59:50.557Z,8.60
